Time;durP1;ratioP1;P1;durP2;ratioP2;P2;SDS_P1;SDS_P2;PMS_P1;PMS_P2;Temp;Humidity;BMP_temperature;BMP_pressure;BME280_temperature;BME280_humidity;BME280_pressure;Samples;Min_cycle;Max_cycle;Signal;HPM_P1;HPM_P2
2023/01/27 07:35:05;;;;;;;3.70;2.70;;;5.10;99.90;5.60;102355.00;;;;6340540;22;20200;-74
2023/01/27 07:37:31;;;;;;;2.50;2.10;;;4.90;99.90;5.70;102343.00;;;;6273449;22;1343035;-74
2023/01/27 07:39:56;;;;;;;0.60;0.60;;;4.90;99.90;7.20;102387.00;;;;6276808;22;20167;-72
2023/01/27 07:42:22;;;;;;;2.40;2.20;;;5.20;99.90;6.50;102378.00;;;;6276634;22;20181;-72
2023/01/27 07:44:48;;;;;;;3.07;2.10;;;5.10;99.90;7.50;102408.00;;;;6276709;22;20565;-72
2023/01/27 07:47:17;;;;;;;7.20;2.87;;;5.50;99.90;6.30;102393.00;;;;6276069;22;20162;-73
2023/01/27 07:49:43;;;;;;;8.27;4.77;;;5.20;99.90;5.90;102399.00;;;;6278309;22;20223;-73
2023/01/27 07:52:08;;;;;;;8.40;5.73;;;5.10;99.90;5.50;102393.00;;;;6276172;22;20182;-73
2023/01/27 07:54:34;;;;;;;6.17;4.00;;;5.00;99.90;6.10;102404.00;;;;6276352;22;20207;-74
2023/01/27 07:57:00;;;;;;;3.60;2.63;;;5.10;99.90;6.10;102395.00;;;;6276525;22;20216;-74
2023/01/27 07:59:27;;;;;;;5.30;3.60;;;5.00;99.90;5.30;102397.00;;;;6276725;22;20200;-74
2023/01/27 08:01:53;;;;;;;4.27;2.50;;;4.90;99.90;6.40;102386.00;;;;6277622;22;20173;-74
2023/01/27 08:04:19;;;;;;;2.77;2.43;;;5.00;99.90;6.60;102373.00;;;;6276087;22;20642;-73
2023/01/27 08:06:45;;;;;;;3.03;1.97;;;5.20;99.90;6.50;102410.00;;;;6273666;22;20244;-73
2023/01/27 08:09:16;;;;;;;3.30;2.40;;;5.20;99.90;6.90;102417.00;;;;6276490;22;20550;-72
2023/01/27 08:11:42;;;;;;;3.77;2.27;;;5.20;99.90;6.60;102420.00;;;;6275992;22;20158;-71
2023/01/27 08:14:08;;;;;;;5.77;3.27;;;5.20;99.90;6.50;102428.00;;;;6276143;22;20613;-72
2023/01/27 08:16:34;;;;;;;2.00;1.50;;;5.20;99.90;6.50;102423.00;;;;6275854;22;20157;-72
2023/01/27 08:19:00;;;;;;;1.27;1.23;;;5.30;99.90;6.70;102437.00;;;;6275909;22;20209;-75
2023/01/27 08:21:31;;;;;;;1.67;1.57;;;5.30;99.90;6.60;102417.00;;;;6275005;22;20150;-73
2023/01/27 08:23:59;;;;;;;1.07;0.97;;;5.40;99.90;8.00;102434.00;;;;6277209;22;20226;-73
2023/01/27 08:26:25;;;;;;;1.23;0.87;;;5.50;99.90;8.30;102444.00;;;;6276495;22;20606;-72
2023/01/27 08:28:51;;;;;;;3.60;2.10;;;5.90;99.90;8.70;102437.00;;;;6248954;22;20157;-73
2023/01/27 08:31:22;;;;;;;2.17;0.70;;;6.10;99.90;8.30;102460.00;;;;6277678;22;20179;-67
2023/01/27 08:34:07;;;;;;;1.97;1.67;;;6.20;99.90;7.50;102463.00;;;;6275640;22;20166;-72
2023/01/27 08:36:32;;;;;;;2.17;2.07;;;6.00;99.90;6.70;102441.00;;;;6275187;22;20178;-72
2023/01/27 08:39:01;;;;;;;0.30;0.30;;;5.60;99.90;7.30;102452.00;;;;6276064;22;20487;-72
2023/01/27 08:41:30;;;;;;;3.17;2.73;;;5.60;99.90;6.90;102448.00;;;;6276363;22;20143;-72
2023/01/27 08:43:56;;;;;;;1.43;1.33;;;5.60;99.90;8.20;102461.00;;;;6277085;22;20171;-72
2023/01/27 08:46:25;;;;;;;2.83;1.90;;;5.80;99.90;6.40;102439.00;;;;6275873;22;20578;-75
2023/01/27 08:48:51;;;;;;;2.07;1.97;;;5.50;99.90;7.00;102452.00;;;;6276633;22;20159;-71
2023/01/27 08:51:17;;;;;;;3.00;2.77;;;5.40;99.90;7.20;102464.00;;;;6275959;22;20161;-72
2023/01/27 08:53:44;;;;;;;0.77;0.77;;;5.60;99.90;6.90;102459.00;;;;6275907;22;20161;-71
2023/01/27 08:56:21;;;;;;;0.97;0.97;;;5.60;99.90;8.10;102477.00;;;;6275050;22;20582;-70
2023/01/27 08:58:51;;;;;;;3.37;2.67;;;5.90;99.90;7.10;102464.00;;;;6275541;22;20443;-71
2023/01/27 09:01:18;;;;;;;0.33;0.33;;;5.80;99.90;7.50;102454.00;;;;6276280;22;20149;-72
2023/01/27 09:03:45;;;;;;;3.27;2.30;;;5.60;99.90;7.00;102463.00;;;;6275665;22;20187;-70
2023/01/27 09:06:12;;;;;;;0.20;0.20;;;5.60;99.90;7.20;102470.00;;;;6249774;22;20244;-64
2023/01/27 09:08:39;;;;;;;1.37;0.93;;;5.60;99.90;7.50;102474.00;;;;6275479;22;20146;-80
2023/01/27 09:11:15;;;;;;;2.27;1.43;;;5.70;99.90;6.90;102478.00;;;;6275742;22;20140;-73
2023/01/27 09:13:47;;;;;;;1.20;1.03;;;5.70;99.90;7.10;102437.00;;;;6276811;22;20169;-71
2023/01/27 09:16:13;;;;;;;1.47;1.37;;;5.60;99.90;7.50;102471.00;;;;6275170;22;20140;-72
2023/01/27 09:18:41;;;;;;;1.20;1.20;;;5.70;99.90;8.00;102486.00;;;;6275561;22;20609;-72
2023/01/27 09:21:07;;;;;;;1.77;1.53;;;5.90;99.90;7.60;102492.00;;;;6275382;22;20423;-70
2023/01/27 09:23:33;;;;;;;1.63;1.53;;;6.00;99.90;7.40;102492.00;;;;6275254;22;20189;-69
2023/01/27 09:25:59;;;;;;;1.43;0.83;;;5.90;99.90;7.30;102490.00;;;;6275565;22;20165;-70
2023/01/27 09:28:58;;;;;;;0.67;0.67;;;5.80;99.90;7.40;102495.00;;;;6275388;22;20164;-71
2023/01/27 09:31:24;;;;;;;0.93;0.77;;;5.80;99.90;7.40;102500.00;;;;6249574;22;20180;-69
2023/01/27 09:34:05;;;;;;;1.00;1.00;;;5.80;99.90;7.70;102496.00;;;;6275398;22;20168;-69
2023/01/27 09:36:40;;;;;;;1.63;1.53;;;5.80;99.90;7.60;102509.00;;;;6278186;22;20182;-68
2023/01/27 09:39:07;;;;;;;1.07;0.60;;;6.00;99.90;7.40;102507.00;;;;6275489;22;20186;-68
2023/01/27 09:42:00;;;;;;;1.63;1.53;;;5.90;99.90;7.90;102502.00;;;;6275415;22;20179;-68
2023/01/27 09:44:52;;;;;;;1.27;1.07;;;5.90;99.90;7.70;102500.00;;;;6276518;22;20139;-68
2023/01/27 09:47:51;;;;;;;1.13;1.07;;;6.00;99.90;7.60;102501.00;;;;6275536;22;20159;-68
2023/01/27 09:50:39;;;;;;;1.90;1.53;;;6.00;99.90;7.30;102503.00;;;;6275524;22;20156;-68
2023/01/27 09:53:55;;;;;;;1.33;1.23;;;5.90;99.90;6.80;102494.00;;;;6275728;22;20222;-71
2023/01/27 09:56:48;;;;;;;0.63;0.57;;;5.80;99.90;7.40;102491.00;;;;6300700;22;20574;-68
2023/01/27 09:59:38;;;;;;;2.53;1.40;;;5.80;99.90;7.30;102498.00;;;;6276699;22;20144;-68
2023/01/27 10:02:32;;;;;;;0.70;0.70;;;5.90;99.90;7.70;102503.00;;;;6275053;22;20315;-70
2023/01/27 10:05:23;;;;;;;1.30;1.20;;;6.00;99.90;7.50;102507.00;;;;6274679;22;20163;-69
2023/01/27 10:08:21;;;;;;;1.80;1.70;;;6.10;99.90;7.70;102503.00;;;;6274580;22;20174;-71
2023/01/27 10:11:31;;;;;;;0.20;0.20;;;6.10;99.90;8.10;102512.00;;;;6272965;22;20161;-72
2023/01/27 10:14:03;;;;;;;3.60;2.10;;;6.10;99.90;7.90;102508.00;;;;6187464;23;20614;-71
2023/01/27 10:17:01;;;;;;;0.87;0.47;;;6.20;99.90;7.90;102508.00;;;;6187451;23;20157;-71
2023/01/27 10:19:34;;;;;;;3.23;1.40;;;6.20;99.90;8.20;102510.00;;;;6258515;22;20160;-69
2023/01/27 10:33:48;;;;;;;1.53;1.30;;;5.60;99.90;7.40;102468.00;;;;5070051;28;20550;-71
2023/01/27 10:36:39;;;;;;;0.53;0.53;;;5.80;99.90;7.80;102504.00;;;;5049100;28;20666;-71
2023/01/27 10:39:22;;;;;;;0.87;0.70;;;6.00;99.90;7.50;102507.00;;;;5045834;28;20208;-74
2023/01/27 10:42:09;;;;;;;0.70;0.60;;;6.10;99.90;7.20;102506.00;;;;5047163;28;20200;-71
2023/01/27 10:45:36;;;;;;;0.70;0.60;;;6.00;99.90;7.50;102502.00;;;;5049246;28;20283;-70
2023/01/27 10:48:42;;;;;;;1.40;1.07;;;5.90;99.90;7.20;102473.00;;;;5045611;28;20192;-71
2023/01/27 10:51:27;;;;;;;0.67;0.67;;;6.00;99.90;7.40;102509.00;;;;5050010;28;20545;-71
2023/01/27 10:54:11;;;;;;;0.43;0.43;;;6.00;99.90;7.70;102511.00;;;;5048458;28;20650;-71
2023/01/27 10:57:09;;;;;;;1.33;1.23;;;6.20;99.90;7.30;102501.00;;;;5048702;28;20188;-69
2023/01/27 10:59:55;;;;;;;1.80;1.17;;;6.10;99.90;7.00;102470.00;;;;5048106;28;20250;-70
2023/01/27 11:02:57;;;;;;;0.40;0.40;;;6.00;99.90;7.30;102490.00;;;;5047988;28;20289;-70
2023/01/27 11:05:39;;;;;;;0.33;0.33;;;5.90;99.90;7.50;102475.00;;;;5041989;28;20203;-71
2023/01/27 11:08:37;;;;;;;1.97;1.77;;;6.10;99.90;7.50;102512.00;;;;5044799;28;20198;-69
2023/01/27 11:14:11;;;;;;;0.97;0.90;;;6.20;99.90;7.00;102499.00;;;;5048513;28;20674;-69
2023/01/27 11:16:42;;;;;;;1.10;1.00;;;6.00;99.90;7.10;102491.00;;;;5045818;28;20203;-70
2023/01/27 11:19:35;;;;;;;0.30;0.30;;;5.90;99.90;7.70;102468.00;;;;5048509;28;20323;-68
2023/01/27 11:22:03;;;;;;;2.77;2.40;;;6.00;99.90;6.50;102501.00;;;;5074984;28;20186;-68
2023/01/27 11:25:07;;;;;;;0.20;0.20;;;5.90;99.90;7.80;102513.00;;;;5047522;28;20182;-68
2023/01/27 11:27:58;;;;;;;1.30;0.80;;;6.10;99.90;7.20;102503.00;;;;5035349;28;20237;-68
2023/01/27 11:30:51;;;;;;;0.50;0.30;;;6.00;99.90;7.50;102510.00;;;;5044917;28;20278;-68
2023/01/27 11:33:29;;;;;;;1.20;1.10;;;6.00;99.90;6.80;102491.00;;;;5040249;28;20682;-68
2023/01/27 11:35:55;;;;;;;0.90;0.47;;;5.90;99.90;7.80;102503.00;;;;5046648;28;20185;-68
2023/01/27 11:38:22;;;;;;;2.37;1.73;;;6.00;99.90;6.80;102500.00;;;;5030535;28;20212;-69
2023/01/27 11:40:52;;;;;;;2.63;1.80;;;5.90;99.90;6.90;102484.00;;;;5035773;28;20513;-68
2023/01/27 11:43:41;;;;;;;0.43;0.40;;;5.80;99.90;7.40;102491.00;;;;5044472;28;20222;-68
2023/01/27 11:46:18;;;;;;;0.97;0.93;;;5.90;99.90;7.50;102506.00;;;;5031622;28;20647;-68
2023/01/27 11:48:51;;;;;;;0.73;0.73;;;6.00;99.90;7.10;102502.00;;;;5022479;28;20532;-68
2023/01/27 11:51:27;;;;;;;0.97;0.97;;;5.90;99.90;7.50;102495.00;;;;5029545;28;20183;-68
2023/01/27 11:54:05;;;;;;;1.53;1.43;;;5.90;99.90;6.50;102498.00;;;;5017794;28;20185;-69
2023/01/27 11:56:34;;;;;;;2.27;1.47;;;5.90;99.90;6.90;102454.00;;;;5029986;28;20263;-68
2023/01/27 11:59:10;;;;;;;1.17;1.07;;;5.80;99.90;6.90;102491.00;;;;5033635;28;20193;-68
2023/01/27 12:01:55;;;;;;;2.73;1.17;;;5.80;99.90;8.30;102493.00;;;;5034230;28;20215;-69
2023/01/27 12:04:56;;;;;;;0.20;0.20;;;6.10;99.90;8.90;102489.00;;;;5033253;28;20214;-69
2023/01/27 12:07:43;;;;;;;0.43;0.43;;;6.60;99.90;7.80;102497.00;;;;5061351;28;20282;-69
2023/01/27 12:10:36;;;;;;;1.13;1.03;;;6.40;99.90;7.50;102489.00;;;;5051227;28;20204;-68
2023/01/27 12:13:26;;;;;;;0.20;0.20;;;6.20;99.90;7.70;102481.00;;;;5033158;28;20220;-69
2023/01/27 12:15:59;;;;;;;0.43;0.43;;;6.20;99.90;8.00;102488.00;;;;5008007;28;20202;-69
2023/01/27 12:18:25;;;;;;;1.47;1.40;;;6.20;99.90;8.10;102480.00;;;;5032859;28;20257;-69
2023/01/27 12:21:07;;;;;;;1.37;1.27;;;6.20;99.90;7.30;102474.00;;;;5032938;28;20216;-69
2023/01/27 12:23:46;;;;;;;1.77;1.60;;;6.20;99.90;7.20;102475.00;;;;5034018;28;20181;-70
2023/01/27 12:26:18;;;;;;;0.23;0.23;;;6.10;99.90;7.50;102467.00;;;;5033581;28;20195;-69
2023/01/27 12:28:53;;;;;;;0.50;0.50;;;6.00;99.90;7.50;102461.00;;;;5012280;28;20185;-69
2023/01/27 12:31:32;;;;;;;1.13;1.03;;;6.00;99.90;7.90;102481.00;;;;5034280;28;20201;-69
2023/01/27 12:34:10;;;;;;;0.97;0.70;;;6.10;99.90;7.80;102489.00;;;;5033423;28;20206;-69
2023/01/27 12:36:45;;;;;;;1.07;1.07;;;6.30;99.90;7.40;102477.00;;;;5027791;28;20193;-69
2023/01/27 12:39:38;;;;;;;0.40;0.40;;;6.10;99.90;6.90;102469.00;;;;5032543;28;20191;-66
2023/01/27 12:42:34;;;;;;;4.73;1.03;;;5.80;99.90;7.20;102464.00;;;;5027957;28;20199;-68
2023/01/27 12:45:21;;;;;;;0.97;0.80;;;5.80;99.90;7.00;102458.00;;;;5034435;28;20243;-68
2023/01/27 12:48:13;;;;;;;0.20;0.20;;;5.70;99.90;7.30;102424.00;;;;5010413;28;20181;-68
2023/01/27 12:50:42;;;;;;;0.60;0.60;;;5.80;99.90;7.60;102468.00;;;;5031665;28;20728;-68
2023/01/27 12:53:19;;;;;;;0.53;0.53;;;6.00;99.90;7.30;102458.00;;;;5016577;28;20660;-68
2023/01/27 12:56:14;;;;;;;0.30;0.30;;;6.00;99.90;7.50;102458.00;;;;5033633;28;20728;-70
2023/01/27 12:59:03;;;;;;;1.47;1.30;;;5.90;99.90;6.90;102462.00;;;;5029578;28;20200;-68
2023/01/27 13:01:40;;;;;;;0.90;0.90;;;5.80;99.90;7.00;102411.00;;;;5028507;28;20575;-68
2023/01/27 13:04:19;;;;;;;0.90;0.90;;;5.70;99.90;6.80;102472.00;;;;5033403;28;20530;-68
2023/01/27 13:07:00;;;;;;;1.63;1.53;;;5.70;99.90;7.20;102449.00;;;;5032818;28;20277;-68
2023/01/27 13:09:54;;;;;;;0.40;0.40;;;5.70;99.90;7.30;102461.00;;;;5033449;28;20186;-68
2023/01/27 13:13:05;;;;;;;0.47;0.47;;;5.80;99.90;7.30;102468.00;;;;5032753;28;20265;-69
2023/01/27 13:15:39;;;;;;;0.73;0.73;;;5.80;99.90;6.80;102460.00;;;;5038998;28;20662;-68
2023/01/27 13:18:20;;;;;;;0.70;0.70;;;5.70;99.90;7.30;102463.00;;;;5015314;28;20182;-68
2023/01/27 13:20:54;;;;;;;0.33;0.33;;;5.70;99.90;7.50;102477.00;;;;5061279;28;20217;-68
2023/01/27 13:23:33;;;;;;;0.60;0.50;;;5.80;99.90;7.40;102464.00;;;;5023019;28;20194;-68
2023/01/27 13:26:21;;;;;;;0.93;0.93;;;5.80;99.90;6.80;102449.00;;;;5032526;28;20195;-68
2023/01/27 13:28:59;;;;;;;0.70;0.70;;;5.70;99.90;7.30;102462.00;;;;5015885;28;20551;-68
2023/01/27 13:32:16;;;;;;;0.60;0.60;;;5.70;99.90;7.30;102457.00;;;;5032169;28;20217;-68
2023/01/27 13:35:11;;;;;;;0.63;0.63;;;5.70;99.90;6.80;102465.00;;;;5014027;28;20667;-68
2023/01/27 13:38:17;;;;;;;0.50;0.50;;;5.70;99.90;6.80;102456.00;;;;5031690;28;20183;-68
2023/01/27 13:40:47;;;;;;;0.73;0.73;;;5.60;99.90;6.60;102453.00;;;;5011542;28;20651;-68
2023/01/27 13:43:26;;;;;;;0.60;0.60;;;5.50;99.90;7.60;102451.00;;;;5030792;28;20189;-69
2023/01/27 13:46:27;;;;;;;1.87;0.80;;;5.60;99.90;7.00;102462.00;;;;5031613;28;20195;-69
2023/01/27 13:49:40;;;;;;;0.90;0.90;;;5.70;99.90;7.10;102468.00;;;;5022365;28;20185;-68
2023/01/27 13:52:06;;;;;;;0.20;0.20;;;5.70;99.90;7.30;102468.00;;;;4996351;28;20577;-68
2023/01/27 13:54:33;;;;;;;0.20;0.20;;;5.70;99.90;7.90;102480.00;;;;5015348;28;20180;-69
2023/01/27 13:57:49;;;;;;;1.30;1.30;;;5.90;99.90;7.00;102477.00;;;;5016790;28;20213;-69
2023/01/27 14:01:07;;;;;;;0.77;0.63;;;5.80;99.90;7.50;102465.00;;;;5047993;28;20293;-69
2023/01/27 14:04:13;;;;;;;1.93;1.50;;;5.70;99.90;7.20;102467.00;;;;5030326;28;20300;-69
2023/01/27 14:07:20;;;;;;;1.40;0.93;;;5.80;99.90;6.80;102464.00;;;;5021821;28;20734;-69
2023/01/27 14:10:48;;;;;;;0.40;0.40;;;5.50;99.90;7.20;102482.00;;;;5039516;28;20201;-68
2023/01/27 14:13:44;;;;;;;2.33;0.90;;;5.60;99.90;6.90;102477.00;;;;5001053;28;20666;-69
2023/01/27 14:16:34;;;;;;;0.23;0.23;;;5.50;99.90;7.20;102470.00;;;;5039328;28;20186;-69
2023/01/27 14:19:29;;;;;;;0.30;0.30;;;5.60;99.90;7.00;102440.00;;;;5030292;28;20188;-69
2023/01/27 14:22:34;;;;;;;0.93;0.93;;;5.60;99.90;6.70;102479.00;;;;5020032;28;20188;-68
2023/01/27 14:25:21;;;;;;;1.30;1.13;;;5.50;99.90;6.70;102457.00;;;;5028948;28;20190;-69
2023/01/27 14:28:14;;;;;;;0.80;0.80;;;5.40;99.90;6.30;102476.00;;;;5041646;28;20207;-69
2023/01/27 14:30:43;;;;;;;1.73;1.17;;;5.30;99.90;6.40;102489.00;;;;5019370;28;20227;-69
2023/01/27 14:33:37;;;;;;;0.87;0.87;;;5.30;99.90;7.20;102486.00;;;;5031613;28;20223;-69
2023/01/27 14:36:24;;;;;;;0.40;0.40;;;5.50;99.90;6.80;102487.00;;;;5043825;28;20189;-69
2023/01/27 14:39:17;;;;;;;0.40;0.40;;;5.50;99.90;7.10;102486.00;;;;5019876;28;20547;-70
2023/01/27 14:42:29;;;;;;;0.30;0.30;;;5.40;99.90;7.10;102455.00;;;;5031793;28;20227;-70
2023/01/27 14:45:20;;;;;;;3.40;1.73;;;5.40;99.90;6.70;102501.00;;;;5026756;28;20174;-69
2023/01/27 14:48:20;;;;;;;0.73;0.73;;;5.50;99.90;6.60;102486.00;;;;5021276;28;20195;-71
2023/01/27 14:51:31;;;;;;;1.33;0.83;;;5.40;99.90;6.50;102460.00;;;;5031594;28;20178;-70
2023/01/27 14:54:43;;;;;;;0.50;0.50;;;5.30;99.90;6.80;102502.00;;;;5021332;28;20645;-69
2023/01/27 14:57:14;;;;;;;0.67;0.67;;;5.30;99.90;6.80;102515.00;;;;5030570;28;20237;-70
2023/01/27 15:00:06;;;;;;;1.83;1.57;;;5.40;99.90;6.80;102501.00;;;;5026246;28;20192;-70
2023/01/27 15:03:00;;;;;;;0.20;0.20;;;5.40;99.90;7.40;102468.00;;;;5029172;28;20199;-70
2023/01/27 15:06:08;;;;;;;0.60;0.60;;;5.40;99.90;6.80;102505.00;;;;5018632;28;20192;-70
2023/01/27 15:08:59;;;;;;;0.83;0.83;;;5.50;99.90;7.20;102501.00;;;;5030720;28;20247;-69
2023/01/27 15:12:28;;;;;;;0.43;0.43;;;5.40;99.90;7.40;102518.00;;;;5029539;28;20189;-70
2023/01/27 15:15:41;;;;;;;2.17;2.03;;;5.60;99.90;6.80;102513.00;;;;4990768;28;20712;-70
2023/01/27 15:18:50;;;;;;;0.67;0.67;;;5.60;99.90;7.30;102514.00;;;;4975232;28;20192;-70
2023/01/27 15:22:11;;;;;;;1.20;1.17;;;5.40;99.90;6.30;102519.00;;;;5034773;28;20281;-69
2023/01/27 15:25:07;;;;;;;1.80;1.47;;;5.40;99.90;6.20;102524.00;;;;4994362;28;20555;-71
2023/01/27 15:27:33;;;;;;;1.03;0.73;;;5.30;99.90;6.30;102516.00;;;;4994553;28;20213;-70
2023/01/27 15:30:29;;;;;;;1.33;1.30;;;5.20;99.90;6.40;102523.00;;;;5024682;28;20193;-69
2023/01/27 15:32:58;;;;;;;0.60;0.57;;;5.10;99.90;6.40;102529.00;;;;5014975;28;20239;-70
2023/01/27 15:35:25;;;;;;;0.40;0.40;;;5.20;99.90;6.30;102531.00;;;;5024777;28;20219;-69
2023/01/27 15:37:59;;;;;;;2.23;1.73;;;5.10;99.90;6.20;102534.00;;;;5034946;28;20225;-71
2023/01/27 15:40:26;;;;;;;1.97;1.73;;;5.10;99.90;6.50;102533.00;;;;5035912;28;20214;-70
2023/01/27 15:43:01;;;;;;;6.20;5.73;;;5.10;99.90;6.50;102532.00;;;;5018249;28;20215;-70
2023/01/27 15:45:40;;;;;;;1.93;1.50;;;5.10;99.90;6.50;102545.00;;;;5029307;28;20186;-70
2023/01/27 15:48:17;;;;;;;1.27;1.17;;;5.20;99.90;6.40;102538.00;;;;5033718;28;20187;-69
2023/01/27 15:51:03;;;;;;;1.73;1.63;;;5.10;99.90;6.20;102532.00;;;;5034493;28;20184;-70
2023/01/27 15:53:41;;;;;;;0.57;0.50;;;5.10;99.90;6.20;102535.00;;;;5034702;28;20249;-69
2023/01/27 15:56:07;;;;;;;1.33;1.33;;;5.10;99.90;6.70;102527.00;;;;5030259;28;20194;-69
2023/01/27 15:59:00;;;;;;;0.60;0.60;;;5.10;99.90;6.30;102529.00;;;;5035718;28;20196;-69
2023/01/27 16:01:32;;;;;;;1.77;1.67;;;5.10;99.90;6.50;102530.00;;;;5055247;28;20196;-70
2023/01/27 16:04:15;;;;;;;1.87;1.70;;;5.10;99.90;6.50;102540.00;;;;5017719;28;20176;-71
2023/01/27 16:07:00;;;;;;;2.67;1.83;;;5.10;99.90;6.70;102531.00;;;;5017934;28;20184;-70
2023/01/27 16:09:42;;;;;;;0.23;0.23;;;5.10;99.90;6.30;102536.00;;;;5046559;28;20183;-69
2023/01/27 16:12:25;;;;;;;0.50;0.30;;;5.10;99.90;6.40;102548.00;;;;5030798;28;20728;-70
2023/01/27 16:15:00;;;;;;;1.07;1.07;;;5.10;99.90;7.30;102549.00;;;;5025251;28;20205;-70
2023/01/27 16:17:32;;;;;;;1.03;0.93;;;5.40;99.90;6.80;102541.00;;;;5034652;28;20186;-70
2023/01/27 16:20:25;;;;;;;1.83;1.73;;;5.30;99.90;6.30;102549.00;;;;5017843;28;20190;-70
2023/01/27 16:23:04;;;;;;;1.60;0.90;;;5.20;99.90;6.90;102544.00;;;;5026745;28;20219;-69
2023/01/27 16:25:38;;;;;;;1.93;1.33;;;5.20;99.90;6.30;102553.00;;;;5033869;28;20190;-68
2023/01/27 16:28:27;;;;;;;1.47;1.37;;;5.20;99.90;6.40;102507.00;;;;5038719;28;20191;-71
2023/01/27 16:31:17;;;;;;;0.53;0.53;;;5.10;99.90;6.60;102540.00;;;;5026343;28;20243;-69
2023/01/27 16:33:47;;;;;;;1.93;1.70;;;5.10;99.90;6.80;102550.00;;;;5029532;28;20189;-72
2023/01/27 16:36:28;;;;;;;1.57;1.37;;;5.20;99.90;6.20;102548.00;;;;5017306;28;20271;-72
2023/01/27 16:39:00;;;;;;;1.40;1.30;;;5.20;99.90;6.50;102552.00;;;;5016907;28;20179;-72
2023/01/27 16:41:36;;;;;;;0.33;0.33;;;5.20;99.90;6.60;102544.00;;;;5018640;28;20184;-73
2023/01/27 16:44:24;;;;;;;1.30;1.20;;;5.20;99.90;6.70;102557.00;;;;5033076;28;20192;-74
2023/01/27 16:47:05;;;;;;;2.10;2.00;;;5.30;99.90;6.60;102525.00;;;;5033255;28;20627;-70
2023/01/27 16:49:35;;;;;;;0.93;0.73;;;5.20;99.90;6.50;102551.00;;;;5027163;28;20195;-70
2023/01/27 16:52:04;;;;;;;0.90;0.90;;;5.20;99.90;6.90;102551.00;;;;5011665;28;20747;-69
2023/01/27 16:54:41;;;;;;;3.73;2.93;;;5.30;99.90;6.50;102556.00;;;;5033295;28;20694;-69
2023/01/27 16:57:29;;;;;;;2.30;1.83;;;5.30;99.90;6.20;102555.00;;;;5034191;28;20187;-69
2023/01/27 17:00:00;;;;;;;0.20;0.20;;;5.10;99.90;7.20;102562.00;;;;5043730;28;20179;-70
2023/01/27 17:02:30;;;;;;;1.33;1.23;;;5.30;99.90;6.20;102575.00;;;;5033527;28;20250;-69
2023/01/27 17:05:03;;;;;;;0.73;0.73;;;5.20;99.90;6.80;102580.00;;;;5032912;28;20245;-69
2023/01/27 17:07:30;;;;;;;1.27;1.00;;;5.20;99.90;6.70;102596.00;;;;5033007;28;20647;-69
2023/01/27 17:09:59;;;;;;;0.40;0.40;;;5.30;99.90;7.10;102594.00;;;;5033321;28;20608;-70
2023/01/27 17:12:45;;;;;;;0.77;0.77;;;5.40;99.90;7.10;102596.00;;;;5032922;28;20219;-70
2023/01/27 17:15:36;;;;;;;1.13;1.03;;;5.30;99.90;6.90;102604.00;;;;5049388;28;20279;-70
2023/01/27 17:18:09;;;;;;;1.33;1.13;;;5.30;99.90;7.20;102611.00;;;;5043752;28;20287;-69
2023/01/27 17:20:45;;;;;;;0.70;0.70;;;5.50;99.90;7.20;102595.00;;;;5025671;28;20189;-70
2023/01/27 17:23:36;;;;;;;0.63;0.63;;;5.50;99.90;7.20;102601.00;;;;5020501;28;20187;-71
2023/01/27 17:26:15;;;;;;;0.20;0.20;;;5.40;99.90;7.80;102620.00;;;;5016069;28;20191;-70
2023/01/27 17:28:49;;;;;;;0.97;0.97;;;5.60;99.90;7.80;102615.00;;;;5045493;28;20724;-69
2023/01/27 17:31:27;;;;;;;0.70;0.70;;;5.80;99.90;7.30;102622.00;;;;5020921;28;20233;-69
2023/01/27 17:34:01;;;;;;;0.37;0.37;;;5.70;99.90;7.10;102612.00;;;;5032500;28;20632;-69
2023/01/27 17:36:29;;;;;;;2.87;2.20;;;5.60;99.90;6.50;102575.00;;;;5032487;28;20197;-70
2023/01/27 17:39:07;;;;;;;0.20;0.20;;;5.40;99.90;7.20;102607.00;;;;5016043;28;20195;-70
2023/01/27 17:41:46;;;;;;;0.30;0.30;;;5.40;99.90;7.70;102622.00;;;;5031785;28;20199;-69
2023/01/27 17:44:23;;;;;;;0.30;0.30;;;5.70;99.90;7.50;102586.00;;;;5015691;28;20715;-69
2023/01/27 17:46:54;;;;;;;0.50;0.50;;;5.60;99.90;7.40;102620.00;;;;5032375;28;20185;-70
2023/01/27 17:49:23;;;;;;;0.50;0.50;;;5.60;99.90;6.90;102613.00;;;;5014309;28;20218;-69
2023/01/27 17:51:57;;;;;;;0.37;0.37;;;5.50;99.90;7.10;102612.00;;;;5048542;28;20328;-69
2023/01/27 17:54:38;;;;;;;0.20;0.20;;;5.50;99.90;7.60;102594.00;;;;5016329;28;20276;-69
2023/01/27 17:57:34;;;;;;;0.47;0.47;;;5.60;99.90;7.20;102638.00;;;;5032212;28;20187;-70
2023/01/27 18:00:09;;;;;;;0.30;0.30;;;5.80;99.90;7.40;102631.00;;;;5021686;28;20178;-70
2023/01/27 18:03:24;;;;;;;0.50;0.50;;;5.70;99.90;8.00;102641.00;;;;5032019;28;20210;-70
2023/01/27 18:05:59;;;;;;;0.60;0.60;;;5.80;99.90;7.00;102622.00;;;;4991524;28;20253;-70
2023/01/27 18:08:25;;;;;;;0.50;0.50;;;5.70;99.90;7.10;102627.00;;;;4972300;28;20607;-69
2023/01/27 18:11:29;;;;;;;2.43;1.57;;;5.60;99.90;6.80;102618.00;;;;4972165;28;20189;-69
2023/01/27 18:14:20;;;;;;;0.20;0.20;;;5.50;99.90;7.50;102638.00;;;;4972914;28;20342;-70
2023/01/27 18:17:07;;;;;;;0.60;0.60;;;5.60;99.90;8.60;102634.00;;;;4989709;28;20201;-69
2023/01/27 18:19:51;;;;;;;2.87;2.33;;;5.80;99.90;8.20;102639.00;;;;5015904;28;20190;-69
2023/01/27 18:22:18;;;;;;;0.57;0.57;;;5.90;99.90;7.80;102639.00;;;;5019643;28;20231;-70
2023/01/27 18:25:15;;;;;;;5.30;4.93;;;5.90;99.90;8.00;102600.00;;;;5031622;28;20217;-69
2023/01/27 18:27:52;;;;;;;0.57;0.57;;;5.90;99.90;8.20;102611.00;;;;5010858;28;20331;-70
2023/01/27 18:30:22;;;;;;;0.40;0.40;;;6.00;99.90;8.10;102606.00;;;;5031848;28;20220;-69
2023/01/27 18:33:09;;;;;;;2.10;1.20;;;5.90;99.90;7.40;102620.00;;;;5019855;28;20261;-70
2023/01/27 18:35:42;;;;;;;0.40;0.40;;;5.70;99.90;8.00;102642.00;;;;5031826;28;20217;-69
2023/01/27 18:38:39;;;;;;;2.53;2.07;;;5.90;99.90;7.40;102625.00;;;;5015464;28;20187;-70
2023/01/27 18:41:31;;;;;;;1.30;0.93;;;5.70;99.90;7.20;102624.00;;;;5014542;28;20185;-70
2023/01/27 18:44:01;;;;;;;0.67;0.67;;;5.60;99.90;7.40;102619.00;;;;5030676;28;20177;-70
2023/01/27 18:46:35;;;;;;;0.87;0.80;;;5.60;99.90;7.20;102628.00;;;;5008513;28;20241;-70
2023/01/27 18:49:09;;;;;;;1.93;0.90;;;5.60;99.90;7.20;102624.00;;;;5031816;28;20183;-69
2023/01/27 18:51:35;;;;;;;0.57;0.57;;;5.60;99.90;7.40;102645.00;;;;5031766;28;20209;-70
2023/01/27 18:54:04;;;;;;;2.43;2.30;;;5.60;99.90;7.40;102633.00;;;;5031720;28;20695;-69
2023/01/27 18:56:42;;;;;;;0.33;0.33;;;5.70;99.90;8.40;102643.00;;;;5046191;28;20627;-70
2023/01/27 18:59:13;;;;;;;1.63;1.57;;;5.90;99.90;7.00;102642.00;;;;5020634;28;20651;-69
2023/01/27 19:01:42;;;;;;;0.97;0.87;;;5.80;99.90;7.40;102647.00;;;;5049880;28;20200;-70
2023/01/27 19:04:22;;;;;;;0.73;0.73;;;5.70;99.90;7.40;102634.00;;;;5018782;28;20177;-70
2023/01/27 19:06:51;;;;;;;0.30;0.30;;;5.60;99.90;8.30;102635.00;;;;5021024;28;20650;-70
2023/01/27 19:09:26;;;;;;;0.30;0.30;;;5.90;99.90;7.50;102650.00;;;;5020512;28;20192;-70
2023/01/27 19:12:00;;;;;;;0.40;0.40;;;5.80;99.90;7.40;102655.00;;;;5035236;28;20604;-70
2023/01/27 19:14:47;;;;;;;1.47;1.33;;;5.60;99.90;7.20;102667.00;;;;5017994;28;20605;-70
2023/01/27 19:17:21;;;;;;;2.90;1.77;;;5.70;99.90;7.70;102676.00;;;;5036338;28;20208;-70
2023/01/27 19:19:56;;;;;;;0.30;0.30;;;5.70;99.90;7.70;102670.00;;;;5037444;28;20195;-70
2023/01/27 19:22:22;;;;;;;1.77;1.57;;;5.80;99.90;7.60;102670.00;;;;5034924;28;20193;-70
2023/01/27 19:24:51;;;;;;;1.00;1.00;;;5.80;99.90;7.90;102679.00;;;;5035376;28;20192;-70
2023/01/27 19:27:24;;;;;;;0.30;0.30;;;5.70;99.90;7.00;102676.00;;;;5018641;28;20234;-69
2023/01/27 19:29:57;;;;;;;2.27;1.80;;;5.60;99.90;6.60;102669.00;;;;5018701;28;20246;-70
2023/01/27 19:32:26;;;;;;;2.43;1.57;;;5.50;99.90;6.70;102672.00;;;;5020864;28;20225;-69
2023/01/27 19:34:52;;;;;;;2.10;1.40;;;5.40;99.90;6.90;102682.00;;;;5040675;28;20245;-70
2023/01/27 19:37:21;;;;;;;0.97;0.93;;;5.40;99.90;6.90;102668.00;;;;5023908;28;20189;-70
2023/01/27 19:39:49;;;;;;;1.67;1.53;;;5.30;99.90;7.00;102668.00;;;;5018334;28;20550;-70
2023/01/27 19:42:15;;;;;;;1.40;1.00;;;5.40;99.90;7.40;102680.00;;;;5034843;28;20195;-70
2023/01/27 19:44:41;;;;;;;0.20;0.20;;;5.50;99.90;7.40;102684.00;;;;5023168;28;20180;-70
2023/01/27 19:47:19;;;;;;;0.70;0.40;;;5.50;99.90;7.20;102687.00;;;;5012740;28;20184;-70
2023/01/27 19:49:47;;;;;;;1.37;1.33;;;5.50;99.90;7.40;102676.00;;;;5034970;28;20199;-70
2023/01/27 19:52:13;;;;;;;1.80;1.70;;;5.50;99.90;6.90;102675.00;;;;5034153;28;20209;-70